sensor_id;sensor_type;location;lat;lon;timestamp;P1;durP1;ratioP1;P2;durP2;ratioP2
11763;SDS011;5939;56.522;14.950;2023-03-23T00:01:57;2.17;;;1.60;;
11763;SDS011;5939;56.522;14.950;2023-03-23T00:04:23;1.80;;;1.50;;
11763;SDS011;5939;56.522;14.950;2023-03-23T00:06:51;2.30;;;1.60;;
11763;SDS011;5939;56.522;14.950;2023-03-23T00:09:17;1.80;;;1.67;;
11763;SDS011;5939;56.522;14.950;2023-03-23T00:11:48;1.67;;;1.50;;
11763;SDS011;5939;56.522;14.950;2023-03-23T00:14:15;1.60;;;1.50;;
11763;SDS011;5939;56.522;14.950;2023-03-23T00:16:41;1.47;;;1.30;;
11763;SDS011;5939;56.522;14.950;2023-03-23T00:19:09;2.20;;;1.73;;
11763;SDS011;5939;56.522;14.950;2023-03-23T00:21:38;1.50;;;1.40;;
11763;SDS011;5939;56.522;14.950;2023-03-23T00:24:13;1.50;;;1.40;;
11763;SDS011;5939;56.522;14.950;2023-03-23T00:26:44;2.77;;;1.50;;
11763;SDS011;5939;56.522;14.950;2023-03-23T00:29:14;1.60;;;1.40;;
11763;SDS011;5939;56.522;14.950;2023-03-23T00:31:46;1.43;;;1.30;;
11763;SDS011;5939;56.522;14.950;2023-03-23T00:34:13;1.40;;;1.27;;
11763;SDS011;5939;56.522;14.950;2023-03-23T00:36:50;1.43;;;1.33;;
11763;SDS011;5939;56.522;14.950;2023-03-23T00:39:21;1.50;;;1.40;;
11763;SDS011;5939;56.522;14.950;2023-03-23T00:41:49;1.40;;;1.30;;
11763;SDS011;5939;56.522;14.950;2023-03-23T00:44:15;1.80;;;1.50;;
11763;SDS011;5939;56.522;14.950;2023-03-23T00:46:44;1.57;;;1.47;;
11763;SDS011;5939;56.522;14.950;2023-03-23T00:49:12;1.70;;;1.43;;
11763;SDS011;5939;56.522;14.950;2023-03-23T00:51:39;2.03;;;1.40;;
11763;SDS011;5939;56.522;14.950;2023-03-23T00:54:06;1.50;;;1.40;;
11763;SDS011;5939;56.522;14.950;2023-03-23T00:56:32;1.37;;;1.23;;
11763;SDS011;5939;56.522;14.950;2023-03-23T00:58:57;2.33;;;1.50;;
11763;SDS011;5939;56.522;14.950;2023-03-23T01:01:23;1.40;;;1.30;;
11763;SDS011;5939;56.522;14.950;2023-03-23T01:03:49;1.40;;;1.30;;
11763;SDS011;5939;56.522;14.950;2023-03-23T01:06:15;2.07;;;1.60;;
11763;SDS011;5939;56.522;14.950;2023-03-23T01:08:41;1.60;;;1.33;;
11763;SDS011;5939;56.522;14.950;2023-03-23T01:11:12;1.60;;;1.47;;
11763;SDS011;5939;56.522;14.950;2023-03-23T01:13:39;2.60;;;1.50;;
11763;SDS011;5939;56.522;14.950;2023-03-23T01:16:06;1.87;;;1.57;;
11763;SDS011;5939;56.522;14.950;2023-03-23T01:18:31;1.50;;;1.40;;
11763;SDS011;5939;56.522;14.950;2023-03-23T01:20:57;1.77;;;1.67;;
11763;SDS011;5939;56.522;14.950;2023-03-23T01:23:23;2.90;;;1.67;;
11763;SDS011;5939;56.522;14.950;2023-03-23T01:25:48;1.57;;;1.47;;
11763;SDS011;5939;56.522;14.950;2023-03-23T01:28:15;1.67;;;1.57;;
11763;SDS011;5939;56.522;14.950;2023-03-23T01:30:40;2.07;;;1.83;;
11763;SDS011;5939;56.522;14.950;2023-03-23T01:33:06;2.23;;;2.00;;
11763;SDS011;5939;56.522;14.950;2023-03-23T01:35:32;1.73;;;1.50;;
11763;SDS011;5939;56.522;14.950;2023-03-23T01:37:57;1.90;;;1.80;;
11763;SDS011;5939;56.522;14.950;2023-03-23T01:40:23;1.97;;;1.77;;
11763;SDS011;5939;56.522;14.950;2023-03-23T01:42:52;1.70;;;1.60;;
11763;SDS011;5939;56.522;14.950;2023-03-23T01:48:00;1.80;;;1.70;;
11763;SDS011;5939;56.522;14.950;2023-03-23T01:50:29;2.20;;;2.00;;
11763;SDS011;5939;56.522;14.950;2023-03-23T01:53:01;2.10;;;1.90;;
11763;SDS011;5939;56.522;14.950;2023-03-23T01:55:33;2.00;;;1.77;;
11763;SDS011;5939;56.522;14.950;2023-03-23T01:58:01;1.90;;;1.80;;
11763;SDS011;5939;56.522;14.950;2023-03-23T02:00:27;2.43;;;1.80;;
11763;SDS011;5939;56.522;14.950;2023-03-23T02:02:56;3.13;;;1.67;;
11763;SDS011;5939;56.522;14.950;2023-03-23T02:05:24;2.17;;;1.90;;
11763;SDS011;5939;56.522;14.950;2023-03-23T02:07:58;2.00;;;1.80;;
11763;SDS011;5939;56.522;14.950;2023-03-23T02:10:31;2.10;;;1.90;;
11763;SDS011;5939;56.522;14.950;2023-03-23T02:12:58;1.80;;;1.63;;
11763;SDS011;5939;56.522;14.950;2023-03-23T02:15:34;2.10;;;1.90;;
11763;SDS011;5939;56.522;14.950;2023-03-23T02:26:47;2.10;;;1.90;;
11763;SDS011;5939;56.522;14.950;2023-03-23T02:29:27;2.10;;;1.90;;
11763;SDS011;5939;56.522;14.950;2023-03-23T02:34:55;2.20;;;2.00;;
11763;SDS011;5939;56.522;14.950;2023-03-23T02:39:52;2.77;;;2.30;;
11763;SDS011;5939;56.522;14.950;2023-03-23T02:42:26;2.20;;;1.93;;
11763;SDS011;5939;56.522;14.950;2023-03-23T02:44:56;2.33;;;2.13;;
11763;SDS011;5939;56.522;14.950;2023-03-23T02:47:27;2.67;;;1.87;;
11763;SDS011;5939;56.522;14.950;2023-03-23T02:49:55;2.27;;;1.70;;
11763;SDS011;5939;56.522;14.950;2023-03-23T02:52:25;2.20;;;2.00;;
11763;SDS011;5939;56.522;14.950;2023-03-23T02:54:54;2.73;;;1.93;;
11763;SDS011;5939;56.522;14.950;2023-03-23T02:57:23;2.30;;;2.07;;
11763;SDS011;5939;56.522;14.950;2023-03-23T02:59:51;2.10;;;1.90;;
11763;SDS011;5939;56.522;14.950;2023-03-23T03:04:48;2.20;;;2.00;;
11763;SDS011;5939;56.522;14.950;2023-03-23T03:10:18;2.37;;;1.70;;
11763;SDS011;5939;56.522;14.950;2023-03-23T03:15:51;1.87;;;1.70;;
11763;SDS011;5939;56.522;14.950;2023-03-23T03:18:23;2.17;;;1.93;;
11763;SDS011;5939;56.522;14.950;2023-03-23T03:20:54;2.10;;;1.90;;
11763;SDS011;5939;56.522;14.950;2023-03-23T03:23:24;2.20;;;2.00;;
11763;SDS011;5939;56.522;14.950;2023-03-23T03:25:52;3.17;;;2.17;;
11763;SDS011;5939;56.522;14.950;2023-03-23T03:28:22;2.77;;;1.90;;
11763;SDS011;5939;56.522;14.950;2023-03-23T03:30:55;2.00;;;1.80;;
11763;SDS011;5939;56.522;14.950;2023-03-23T03:33:25;2.10;;;1.90;;
11763;SDS011;5939;56.522;14.950;2023-03-23T03:35:53;2.20;;;1.83;;
11763;SDS011;5939;56.522;14.950;2023-03-23T03:38:20;2.17;;;2.00;;
11763;SDS011;5939;56.522;14.950;2023-03-23T03:40:46;1.93;;;1.73;;
11763;SDS011;5939;56.522;14.950;2023-03-23T03:43:12;1.70;;;1.57;;
11763;SDS011;5939;56.522;14.950;2023-03-23T03:45:38;1.70;;;1.60;;
11763;SDS011;5939;56.522;14.950;2023-03-23T03:48:03;2.20;;;2.00;;
11763;SDS011;5939;56.522;14.950;2023-03-23T03:50:29;1.80;;;1.70;;
11763;SDS011;5939;56.522;14.950;2023-03-23T03:52:55;1.70;;;1.53;;
11763;SDS011;5939;56.522;14.950;2023-03-23T03:55:22;1.83;;;1.50;;
11763;SDS011;5939;56.522;14.950;2023-03-23T03:57:48;2.73;;;2.00;;
11763;SDS011;5939;56.522;14.950;2023-03-23T04:00:14;1.73;;;1.63;;
11763;SDS011;5939;56.522;14.950;2023-03-23T04:02:44;2.03;;;1.93;;
11763;SDS011;5939;56.522;14.950;2023-03-23T04:05:12;1.70;;;1.60;;
11763;SDS011;5939;56.522;14.950;2023-03-23T04:07:38;2.53;;;1.70;;
11763;SDS011;5939;56.522;14.950;2023-03-23T04:10:07;2.60;;;1.80;;
11763;SDS011;5939;56.522;14.950;2023-03-23T04:12:35;2.33;;;2.03;;
11763;SDS011;5939;56.522;14.950;2023-03-23T04:15:01;1.70;;;1.60;;
11763;SDS011;5939;56.522;14.950;2023-03-23T04:17:27;1.80;;;1.70;;
11763;SDS011;5939;56.522;14.950;2023-03-23T04:19:53;2.00;;;1.70;;
11763;SDS011;5939;56.522;14.950;2023-03-23T04:22:26;2.10;;;1.90;;
11763;SDS011;5939;56.522;14.950;2023-03-23T04:24:58;2.17;;;1.97;;
11763;SDS011;5939;56.522;14.950;2023-03-23T04:27:25;2.40;;;2.10;;
11763;SDS011;5939;56.522;14.950;2023-03-23T04:29:53;1.77;;;1.67;;
11763;SDS011;5939;56.522;14.950;2023-03-23T04:32:21;2.33;;;2.00;;
11763;SDS011;5939;56.522;14.950;2023-03-23T04:34:47;2.10;;;1.80;;
11763;SDS011;5939;56.522;14.950;2023-03-23T04:37:13;2.07;;;1.87;;
11763;SDS011;5939;56.522;14.950;2023-03-23T04:39:39;2.70;;;1.97;;
11763;SDS011;5939;56.522;14.950;2023-03-23T04:42:06;2.20;;;2.00;;
11763;SDS011;5939;56.522;14.950;2023-03-23T04:44:32;3.37;;;1.87;;
11763;SDS011;5939;56.522;14.950;2023-03-23T04:47:00;2.33;;;1.67;;
11763;SDS011;5939;56.522;14.950;2023-03-23T04:49:26;2.50;;;2.00;;
11763;SDS011;5939;56.522;14.950;2023-03-23T04:51:51;2.00;;;1.80;;
11763;SDS011;5939;56.522;14.950;2023-03-23T04:54:17;2.10;;;1.90;;
11763;SDS011;5939;56.522;14.950;2023-03-23T04:56:43;2.87;;;1.90;;
11763;SDS011;5939;56.522;14.950;2023-03-23T04:59:09;2.10;;;1.90;;
11763;SDS011;5939;56.522;14.950;2023-03-23T05:01:34;2.13;;;1.93;;
11763;SDS011;5939;56.522;14.950;2023-03-23T05:04:01;2.50;;;2.30;;
11763;SDS011;5939;56.522;14.950;2023-03-23T05:06:27;2.40;;;2.00;;
11763;SDS011;5939;56.522;14.950;2023-03-23T05:08:52;2.30;;;2.10;;
11763;SDS011;5939;56.522;14.950;2023-03-23T05:11:18;2.20;;;2.00;;
11763;SDS011;5939;56.522;14.950;2023-03-23T05:13:44;2.73;;;1.80;;
11763;SDS011;5939;56.522;14.950;2023-03-23T05:16:09;2.57;;;2.20;;
11763;SDS011;5939;56.522;14.950;2023-03-23T05:18:35;3.23;;;2.20;;
11763;SDS011;5939;56.522;14.950;2023-03-23T05:21:01;3.00;;;2.27;;
11763;SDS011;5939;56.522;14.950;2023-03-23T05:23:29;2.83;;;2.50;;
11763;SDS011;5939;56.522;14.950;2023-03-23T05:25:58;2.40;;;2.20;;
11763;SDS011;5939;56.522;14.950;2023-03-23T05:28:27;2.40;;;2.20;;
11763;SDS011;5939;56.522;14.950;2023-03-23T05:30:55;2.27;;;2.00;;
11763;SDS011;5939;56.522;14.950;2023-03-23T05:33:21;2.80;;;2.30;;
11763;SDS011;5939;56.522;14.950;2023-03-23T05:35:47;2.53;;;2.10;;
11763;SDS011;5939;56.522;14.950;2023-03-23T05:38:13;2.70;;;2.40;;
11763;SDS011;5939;56.522;14.950;2023-03-23T05:40:40;3.50;;;2.87;;
11763;SDS011;5939;56.522;14.950;2023-03-23T05:43:08;4.10;;;2.73;;
11763;SDS011;5939;56.522;14.950;2023-03-23T05:45:35;3.70;;;2.80;;
11763;SDS011;5939;56.522;14.950;2023-03-23T05:48:00;3.10;;;2.80;;
11763;SDS011;5939;56.522;14.950;2023-03-23T05:50:26;3.63;;;2.70;;
11763;SDS011;5939;56.522;14.950;2023-03-23T05:52:53;3.23;;;2.93;;
11763;SDS011;5939;56.522;14.950;2023-03-23T05:55:19;3.40;;;3.10;;
11763;SDS011;5939;56.522;14.950;2023-03-23T05:57:45;4.03;;;3.17;;
11763;SDS011;5939;56.522;14.950;2023-03-23T06:00:11;3.73;;;3.30;;
11763;SDS011;5939;56.522;14.950;2023-03-23T06:02:46;5.20;;;3.70;;
11763;SDS011;5939;56.522;14.950;2023-03-23T06:05:13;4.20;;;3.30;;
11763;SDS011;5939;56.522;14.950;2023-03-23T06:07:38;4.23;;;3.83;;
11763;SDS011;5939;56.522;14.950;2023-03-23T06:10:05;4.30;;;3.90;;
11763;SDS011;5939;56.522;14.950;2023-03-23T06:12:32;6.23;;;4.37;;
11763;SDS011;5939;56.522;14.950;2023-03-23T06:14:58;5.13;;;4.17;;
11763;SDS011;5939;56.522;14.950;2023-03-23T06:17:23;5.13;;;4.50;;
11763;SDS011;5939;56.522;14.950;2023-03-23T06:19:49;5.57;;;4.33;;
11763;SDS011;5939;56.522;14.950;2023-03-23T06:22:15;5.93;;;4.53;;
11763;SDS011;5939;56.522;14.950;2023-03-23T06:24:42;5.10;;;4.27;;
11763;SDS011;5939;56.522;14.950;2023-03-23T06:27:09;5.63;;;4.57;;
11763;SDS011;5939;56.522;14.950;2023-03-23T06:29:35;5.77;;;4.33;;
11763;SDS011;5939;56.522;14.950;2023-03-23T06:32:02;5.73;;;4.70;;
11763;SDS011;5939;56.522;14.950;2023-03-23T06:34:29;5.37;;;4.40;;
11763;SDS011;5939;56.522;14.950;2023-03-23T06:36:56;5.83;;;4.60;;
11763;SDS011;5939;56.522;14.950;2023-03-23T06:39:22;5.60;;;4.33;;
11763;SDS011;5939;56.522;14.950;2023-03-23T06:41:48;6.53;;;5.30;;
11763;SDS011;5939;56.522;14.950;2023-03-23T06:44:15;6.03;;;4.90;;
11763;SDS011;5939;56.522;14.950;2023-03-23T06:46:41;5.63;;;4.80;;
11763;SDS011;5939;56.522;14.950;2023-03-23T06:49:07;6.57;;;5.10;;
11763;SDS011;5939;56.522;14.950;2023-03-23T06:51:34;5.70;;;4.57;;
11763;SDS011;5939;56.522;14.950;2023-03-23T06:54:01;5.33;;;4.40;;
11763;SDS011;5939;56.522;14.950;2023-03-23T06:56:28;5.77;;;4.60;;
11763;SDS011;5939;56.522;14.950;2023-03-23T06:58:55;5.40;;;4.50;;
11763;SDS011;5939;56.522;14.950;2023-03-23T07:01:20;5.87;;;4.70;;
11763;SDS011;5939;56.522;14.950;2023-03-23T07:03:47;5.50;;;4.37;;
11763;SDS011;5939;56.522;14.950;2023-03-23T07:06:13;5.57;;;4.53;;
11763;SDS011;5939;56.522;14.950;2023-03-23T07:08:40;5.67;;;4.50;;
11763;SDS011;5939;56.522;14.950;2023-03-23T07:11:06;4.67;;;4.17;;
11763;SDS011;5939;56.522;14.950;2023-03-23T07:13:31;5.53;;;4.57;;
11763;SDS011;5939;56.522;14.950;2023-03-23T07:15:57;5.93;;;4.30;;
11763;SDS011;5939;56.522;14.950;2023-03-23T07:18:23;5.13;;;3.90;;
11763;SDS011;5939;56.522;14.950;2023-03-23T07:20:50;5.60;;;4.60;;
11763;SDS011;5939;56.522;14.950;2023-03-23T07:23:17;5.60;;;4.20;;
11763;SDS011;5939;56.522;14.950;2023-03-23T07:25:43;5.97;;;4.20;;
11763;SDS011;5939;56.522;14.950;2023-03-23T07:28:11;4.50;;;3.80;;
11763;SDS011;5939;56.522;14.950;2023-03-23T07:30:37;4.73;;;4.33;;
11763;SDS011;5939;56.522;14.950;2023-03-23T07:33:06;4.20;;;3.70;;
11763;SDS011;5939;56.522;14.950;2023-03-23T07:35:34;5.00;;;4.00;;
11763;SDS011;5939;56.522;14.950;2023-03-23T07:38:00;4.50;;;4.07;;
11763;SDS011;5939;56.522;14.950;2023-03-23T07:40:27;5.47;;;4.03;;
11763;SDS011;5939;56.522;14.950;2023-03-23T07:42:55;4.50;;;3.77;;
11763;SDS011;5939;56.522;14.950;2023-03-23T07:45:23;4.90;;;4.00;;
11763;SDS011;5939;56.522;14.950;2023-03-23T07:47:49;5.30;;;4.07;;
11763;SDS011;5939;56.522;14.950;2023-03-23T07:50:15;5.03;;;4.03;;
11763;SDS011;5939;56.522;14.950;2023-03-23T07:52:43;5.33;;;3.73;;
11763;SDS011;5939;56.522;14.950;2023-03-23T07:55:11;4.77;;;4.10;;
11763;SDS011;5939;56.522;14.950;2023-03-23T07:57:42;4.23;;;3.83;;
11763;SDS011;5939;56.522;14.950;2023-03-23T08:00:13;4.53;;;3.80;;
11763;SDS011;5939;56.522;14.950;2023-03-23T08:02:48;4.93;;;4.00;;
11763;SDS011;5939;56.522;14.950;2023-03-23T08:05:16;5.07;;;3.83;;
11763;SDS011;5939;56.522;14.950;2023-03-23T08:07:43;4.40;;;3.90;;
11763;SDS011;5939;56.522;14.950;2023-03-23T08:10:10;6.43;;;4.30;;
11763;SDS011;5939;56.522;14.950;2023-03-23T08:12:41;4.43;;;3.87;;
11763;SDS011;5939;56.522;14.950;2023-03-23T08:15:08;4.53;;;3.83;;
11763;SDS011;5939;56.522;14.950;2023-03-23T08:17:38;4.83;;;3.93;;
11763;SDS011;5939;56.522;14.950;2023-03-23T08:20:05;4.90;;;3.90;;
11763;SDS011;5939;56.522;14.950;2023-03-23T08:22:35;4.73;;;3.93;;
11763;SDS011;5939;56.522;14.950;2023-03-23T08:25:03;4.73;;;4.10;;
11763;SDS011;5939;56.522;14.950;2023-03-23T08:27:31;5.60;;;3.83;;
11763;SDS011;5939;56.522;14.950;2023-03-23T08:29:57;4.37;;;3.97;;
11763;SDS011;5939;56.522;14.950;2023-03-23T08:32:23;4.50;;;4.10;;
11763;SDS011;5939;56.522;14.950;2023-03-23T08:34:49;4.47;;;4.07;;
11763;SDS011;5939;56.522;14.950;2023-03-23T08:37:15;4.30;;;3.90;;
11763;SDS011;5939;56.522;14.950;2023-03-23T08:39:41;4.83;;;3.97;;
11763;SDS011;5939;56.522;14.950;2023-03-23T08:42:10;4.47;;;3.87;;
11763;SDS011;5939;56.522;14.950;2023-03-23T08:44:36;3.90;;;3.50;;
11763;SDS011;5939;56.522;14.950;2023-03-23T08:47:03;4.43;;;3.80;;
11763;SDS011;5939;56.522;14.950;2023-03-23T08:49:30;5.10;;;4.27;;
11763;SDS011;5939;56.522;14.950;2023-03-23T08:51:57;4.87;;;4.00;;
11763;SDS011;5939;56.522;14.950;2023-03-23T08:54:24;5.13;;;3.67;;
11763;SDS011;5939;56.522;14.950;2023-03-23T08:56:50;4.87;;;4.20;;
11763;SDS011;5939;56.522;14.950;2023-03-23T08:59:16;4.80;;;4.17;;
11763;SDS011;5939;56.522;14.950;2023-03-23T09:01:42;4.20;;;3.80;;
11763;SDS011;5939;56.522;14.950;2023-03-23T09:04:07;5.03;;;3.70;;
11763;SDS011;5939;56.522;14.950;2023-03-23T09:06:34;4.60;;;4.13;;
11763;SDS011;5939;56.522;14.950;2023-03-23T09:09:02;4.70;;;3.73;;
11763;SDS011;5939;56.522;14.950;2023-03-23T09:11:32;5.07;;;4.50;;
11763;SDS011;5939;56.522;14.950;2023-03-23T09:13:59;5.37;;;4.27;;
11763;SDS011;5939;56.522;14.950;2023-03-23T09:16:24;4.90;;;3.97;;
11763;SDS011;5939;56.522;14.950;2023-03-23T09:18:50;4.53;;;4.07;;
11763;SDS011;5939;56.522;14.950;2023-03-23T09:21:16;5.50;;;4.60;;
11763;SDS011;5939;56.522;14.950;2023-03-23T09:23:42;5.70;;;4.60;;
11763;SDS011;5939;56.522;14.950;2023-03-23T09:26:09;5.57;;;4.40;;
11763;SDS011;5939;56.522;14.950;2023-03-23T09:28:35;5.00;;;4.50;;
11763;SDS011;5939;56.522;14.950;2023-03-23T09:31:01;5.53;;;4.40;;
11763;SDS011;5939;56.522;14.950;2023-03-23T09:33:26;5.63;;;4.67;;
11763;SDS011;5939;56.522;14.950;2023-03-23T09:35:57;4.80;;;4.30;;
11763;SDS011;5939;56.522;14.950;2023-03-23T09:38:23;5.33;;;4.50;;
11763;SDS011;5939;56.522;14.950;2023-03-23T09:49:37;6.70;;;4.77;;
11763;SDS011;5939;56.522;14.950;2023-03-23T09:52:18;6.23;;;4.90;;
11763;SDS011;5939;56.522;14.950;2023-03-23T09:54:48;6.67;;;5.00;;
11763;SDS011;5939;56.522;14.950;2023-03-23T09:57:22;5.73;;;4.93;;
11763;SDS011;5939;56.522;14.950;2023-03-23T10:03:25;6.60;;;5.20;;
11763;SDS011;5939;56.522;14.950;2023-03-23T10:05:44;6.20;;;4.53;;
11763;SDS011;5939;56.522;14.950;2023-03-23T10:08:15;5.70;;;4.90;;
11763;SDS011;5939;56.522;14.950;2023-03-23T10:16:03;6.97;;;5.00;;
11763;SDS011;5939;56.522;14.950;2023-03-23T10:21:02;6.77;;;4.67;;
11763;SDS011;5939;56.522;14.950;2023-03-23T10:28:46;5.93;;;4.40;;
11763;SDS011;5939;56.522;14.950;2023-03-23T10:31:22;6.07;;;4.37;;
11763;SDS011;5939;56.522;14.950;2023-03-23T10:33:51;5.70;;;4.30;;
11763;SDS011;5939;56.522;14.950;2023-03-23T10:36:21;5.47;;;4.40;;
11763;SDS011;5939;56.522;14.950;2023-03-23T10:41:34;5.23;;;4.50;;
11763;SDS011;5939;56.522;14.950;2023-03-23T10:44:00;4.60;;;3.90;;
11763;SDS011;5939;56.522;14.950;2023-03-23T10:46:33;6.67;;;4.20;;
11763;SDS011;5939;56.522;14.950;2023-03-23T10:49:04;4.00;;;3.57;;
11763;SDS011;5939;56.522;14.950;2023-03-23T10:51:35;4.47;;;3.60;;
11763;SDS011;5939;56.522;14.950;2023-03-23T10:54:05;4.60;;;3.63;;
11763;SDS011;5939;56.522;14.950;2023-03-23T10:56:38;4.97;;;3.80;;
11763;SDS011;5939;56.522;14.950;2023-03-23T10:59:13;4.10;;;3.40;;
11763;SDS011;5939;56.522;14.950;2023-03-23T11:02:00;4.00;;;3.30;;
11763;SDS011;5939;56.522;14.950;2023-03-23T11:04:28;5.90;;;3.50;;
11763;SDS011;5939;56.522;14.950;2023-03-23T11:06:58;4.50;;;3.17;;
11763;SDS011;5939;56.522;14.950;2023-03-23T11:10:04;3.37;;;3.07;;
11763;SDS011;5939;56.522;14.950;2023-03-23T11:12:23;3.90;;;3.33;;
11763;SDS011;5939;56.522;14.950;2023-03-23T11:14:49;3.93;;;2.97;;
11763;SDS011;5939;56.522;14.950;2023-03-23T11:17:23;3.30;;;3.00;;
11763;SDS011;5939;56.522;14.950;2023-03-23T11:19:51;3.67;;;3.30;;
11763;SDS011;5939;56.522;14.950;2023-03-23T11:22:21;4.80;;;2.77;;
11763;SDS011;5939;56.522;14.950;2023-03-23T11:24:54;3.37;;;2.63;;
11763;SDS011;5939;56.522;14.950;2023-03-23T11:27:22;3.30;;;2.97;;
11763;SDS011;5939;56.522;14.950;2023-03-23T11:29:51;3.33;;;2.80;;
11763;SDS011;5939;56.522;14.950;2023-03-23T11:32:19;3.10;;;2.77;;
11763;SDS011;5939;56.522;14.950;2023-03-23T11:34:53;4.63;;;2.70;;
11763;SDS011;5939;56.522;14.950;2023-03-23T11:37:32;3.57;;;2.80;;
11763;SDS011;5939;56.522;14.950;2023-03-23T11:42:42;4.03;;;3.07;;
11763;SDS011;5939;56.522;14.950;2023-03-23T11:51:20;3.30;;;2.83;;
11763;SDS011;5939;56.522;14.950;2023-03-23T11:57:06;2.67;;;2.40;;
11763;SDS011;5939;56.522;14.950;2023-03-23T11:59:35;3.33;;;2.73;;
11763;SDS011;5939;56.522;14.950;2023-03-23T12:10:41;3.03;;;2.43;;
11763;SDS011;5939;56.522;14.950;2023-03-23T12:13:31;3.10;;;2.73;;
11763;SDS011;5939;56.522;14.950;2023-03-23T12:21:47;3.90;;;2.27;;
11763;SDS011;5939;56.522;14.950;2023-03-23T12:41:41;2.40;;;2.20;;
11763;SDS011;5939;56.522;14.950;2023-03-23T12:44:47;2.20;;;2.00;;
11763;SDS011;5939;56.522;14.950;2023-03-23T12:50:16;2.50;;;2.30;;
11763;SDS011;5939;56.522;14.950;2023-03-23T12:58:05;3.30;;;2.33;;
11763;SDS011;5939;56.522;14.950;2023-03-23T13:09:14;3.47;;;2.30;;
11763;SDS011;5939;56.522;14.950;2023-03-23T13:11:58;2.20;;;2.00;;
11763;SDS011;5939;56.522;14.950;2023-03-23T13:14:43;2.20;;;1.90;;
11763;SDS011;5939;56.522;14.950;2023-03-23T13:20:30;2.70;;;1.93;;
11763;SDS011;5939;56.522;14.950;2023-03-23T13:25:51;3.33;;;2.30;;
11763;SDS011;5939;56.522;14.950;2023-03-23T13:28:24;3.37;;;1.77;;
11763;SDS011;5939;56.522;14.950;2023-03-23T13:33:46;2.47;;;1.77;;
11763;SDS011;5939;56.522;14.950;2023-03-23T13:36:15;1.90;;;1.60;;
11763;SDS011;5939;56.522;14.950;2023-03-23T13:38:45;1.93;;;1.77;;
11763;SDS011;5939;56.522;14.950;2023-03-23T13:41:14;1.93;;;1.67;;
11763;SDS011;5939;56.522;14.950;2023-03-23T13:43:43;2.27;;;1.80;;
11763;SDS011;5939;56.522;14.950;2023-03-23T13:48:51;3.17;;;1.70;;
11763;SDS011;5939;56.522;14.950;2023-03-23T13:56:54;1.90;;;1.50;;
11763;SDS011;5939;56.522;14.950;2023-03-23T14:02:21;2.70;;;1.70;;
11763;SDS011;5939;56.522;14.950;2023-03-23T14:07:56;2.43;;;1.60;;
11763;SDS011;5939;56.522;14.950;2023-03-23T14:18:38;1.80;;;1.20;;
11763;SDS011;5939;56.522;14.950;2023-03-23T14:21:05;1.60;;;1.40;;
11763;SDS011;5939;56.522;14.950;2023-03-23T14:23:38;1.97;;;1.40;;
11763;SDS011;5939;56.522;14.950;2023-03-23T14:26:08;1.53;;;1.40;;
11763;SDS011;5939;56.522;14.950;2023-03-23T14:28:42;1.50;;;1.40;;
11763;SDS011;5939;56.522;14.950;2023-03-23T14:31:18;1.53;;;1.30;;
11763;SDS011;5939;56.522;14.950;2023-03-23T14:33:49;1.97;;;1.30;;
11763;SDS011;5939;56.522;14.950;2023-03-23T14:36:20;2.27;;;1.40;;
11763;SDS011;5939;56.522;14.950;2023-03-23T14:38:46;1.70;;;1.27;;
11763;SDS011;5939;56.522;14.950;2023-03-23T14:41:11;3.23;;;1.20;;
11763;SDS011;5939;56.522;14.950;2023-03-23T14:43:38;1.90;;;1.20;;
11763;SDS011;5939;56.522;14.950;2023-03-23T14:46:07;2.40;;;1.37;;
11763;SDS011;5939;56.522;14.950;2023-03-23T14:48:35;2.73;;;1.67;;
11763;SDS011;5939;56.522;14.950;2023-03-23T14:51:04;2.17;;;1.13;;
11763;SDS011;5939;56.522;14.950;2023-03-23T14:53:36;1.33;;;1.20;;
11763;SDS011;5939;56.522;14.950;2023-03-23T14:56:10;2.63;;;1.33;;
11763;SDS011;5939;56.522;14.950;2023-03-23T14:58:38;1.67;;;1.23;;
11763;SDS011;5939;56.522;14.950;2023-03-23T15:01:09;1.93;;;1.20;;
11763;SDS011;5939;56.522;14.950;2023-03-23T15:03:40;2.67;;;1.20;;
11763;SDS011;5939;56.522;14.950;2023-03-23T15:06:15;1.97;;;1.23;;
11763;SDS011;5939;56.522;14.950;2023-03-23T15:08:43;2.20;;;1.30;;
11763;SDS011;5939;56.522;14.950;2023-03-23T15:13:52;1.60;;;1.27;;
11763;SDS011;5939;56.522;14.950;2023-03-23T15:16:23;1.63;;;1.20;;
11763;SDS011;5939;56.522;14.950;2023-03-23T15:18:55;1.83;;;1.30;;
11763;SDS011;5939;56.522;14.950;2023-03-23T15:21:46;2.67;;;1.13;;
11763;SDS011;5939;56.522;14.950;2023-03-23T15:24:32;2.80;;;1.20;;
11763;SDS011;5939;56.522;14.950;2023-03-23T15:27:18;5.03;;;1.40;;
11763;SDS011;5939;56.522;14.950;2023-03-23T15:29:57;2.40;;;1.23;;
11763;SDS011;5939;56.522;14.950;2023-03-23T15:32:44;3.17;;;1.43;;
11763;SDS011;5939;56.522;14.950;2023-03-23T15:35:11;2.90;;;1.30;;
11763;SDS011;5939;56.522;14.950;2023-03-23T15:37:43;1.93;;;1.30;;
11763;SDS011;5939;56.522;14.950;2023-03-23T15:40:21;1.90;;;1.30;;
11763;SDS011;5939;56.522;14.950;2023-03-23T15:42:48;3.53;;;1.70;;
11763;SDS011;5939;56.522;14.950;2023-03-23T15:45:25;1.70;;;1.40;;
11763;SDS011;5939;56.522;14.950;2023-03-23T15:47:52;3.20;;;1.40;;
11763;SDS011;5939;56.522;14.950;2023-03-23T15:50:19;2.27;;;1.30;;
11763;SDS011;5939;56.522;14.950;2023-03-23T15:53:49;2.70;;;1.30;;
11763;SDS011;5939;56.522;14.950;2023-03-23T15:56:01;3.23;;;1.40;;
11763;SDS011;5939;56.522;14.950;2023-03-23T15:58:28;3.00;;;1.50;;
11763;SDS011;5939;56.522;14.950;2023-03-23T16:00:55;2.57;;;1.40;;
11763;SDS011;5939;56.522;14.950;2023-03-23T16:03:24;2.37;;;1.23;;
11763;SDS011;5939;56.522;14.950;2023-03-23T16:05:55;3.63;;;1.43;;
11763;SDS011;5939;56.522;14.950;2023-03-23T16:08:24;2.10;;;1.30;;
11763;SDS011;5939;56.522;14.950;2023-03-23T16:10:50;2.57;;;1.20;;
11763;SDS011;5939;56.522;14.950;2023-03-23T16:13:16;4.13;;;1.70;;
11763;SDS011;5939;56.522;14.950;2023-03-23T16:15:42;2.50;;;1.53;;
11763;SDS011;5939;56.522;14.950;2023-03-23T16:18:15;3.00;;;1.27;;
11763;SDS011;5939;56.522;14.950;2023-03-23T16:20:43;1.17;;;1.03;;
11763;SDS011;5939;56.522;14.950;2023-03-23T16:23:09;3.17;;;1.53;;
11763;SDS011;5939;56.522;14.950;2023-03-23T16:25:34;3.77;;;1.20;;
11763;SDS011;5939;56.522;14.950;2023-03-23T16:28:00;2.83;;;1.77;;
11763;SDS011;5939;56.522;14.950;2023-03-23T16:30:27;2.43;;;1.40;;
11763;SDS011;5939;56.522;14.950;2023-03-23T16:32:56;3.47;;;1.50;;
11763;SDS011;5939;56.522;14.950;2023-03-23T16:35:22;5.37;;;2.00;;
11763;SDS011;5939;56.522;14.950;2023-03-23T16:37:49;4.17;;;1.67;;
11763;SDS011;5939;56.522;14.950;2023-03-23T16:40:17;2.57;;;1.50;;
11763;SDS011;5939;56.522;14.950;2023-03-23T16:42:44;4.73;;;1.50;;
11763;SDS011;5939;56.522;14.950;2023-03-23T16:45:11;3.77;;;1.33;;
11763;SDS011;5939;56.522;14.950;2023-03-23T16:47:37;2.77;;;1.23;;
11763;SDS011;5939;56.522;14.950;2023-03-23T16:50:04;2.20;;;1.50;;
11763;SDS011;5939;56.522;14.950;2023-03-23T16:52:31;4.00;;;1.60;;
11763;SDS011;5939;56.522;14.950;2023-03-23T16:54:58;3.30;;;1.30;;
11763;SDS011;5939;56.522;14.950;2023-03-23T16:57:23;3.80;;;1.20;;
11763;SDS011;5939;56.522;14.950;2023-03-23T16:59:50;2.83;;;1.40;;
11763;SDS011;5939;56.522;14.950;2023-03-23T17:02:15;3.67;;;1.50;;
11763;SDS011;5939;56.522;14.950;2023-03-23T17:04:42;3.30;;;1.73;;
11763;SDS011;5939;56.522;14.950;2023-03-23T17:07:10;3.00;;;1.40;;
11763;SDS011;5939;56.522;14.950;2023-03-23T17:09:36;2.80;;;1.40;;
11763;SDS011;5939;56.522;14.950;2023-03-23T17:12:02;2.47;;;1.30;;
11763;SDS011;5939;56.522;14.950;2023-03-23T17:14:28;2.80;;;1.40;;
11763;SDS011;5939;56.522;14.950;2023-03-23T17:16:54;2.60;;;1.40;;
11763;SDS011;5939;56.522;14.950;2023-03-23T17:19:20;4.63;;;1.30;;
11763;SDS011;5939;56.522;14.950;2023-03-23T17:21:46;4.97;;;1.70;;
11763;SDS011;5939;56.522;14.950;2023-03-23T17:24:12;2.37;;;1.40;;
11763;SDS011;5939;56.522;14.950;2023-03-23T17:26:37;4.07;;;1.50;;